Time;durP1;ratioP1;P1;durP2;ratioP2;P2;SDS_P1;SDS_P2;PMS_P1;PMS_P2;Temp;Humidity;BMP_temperature;BMP_pressure;BME280_temperature;BME280_humidity;BME280_pressure;Samples;Min_cycle;Max_cycle;Signal;HPM_P1;HPM_P2
2023/06/30 00:01:06;;;;;;;7.88;4.43;;;;;;;22.22;57.92;100105.66;4199043;28;20043;-66
2023/06/30 00:03:09;;;;;;;8.85;4.55;;;;;;;22.23;57.96;100104.75;4208507;28;20485;-66
2023/06/30 00:05:13;;;;;;;9.30;4.90;;;;;;;22.22;58.10;100103.00;4202870;28;20037;-66
2023/06/30 00:07:20;;;;;;;6.30;4.35;;;;;;;22.17;57.97;100099.69;4204197;28;20067;-66
2023/06/30 00:09:24;;;;;;;7.75;4.85;;;;;;;22.13;57.93;100096.28;4200846;28;20056;-66
2023/06/30 00:11:27;;;;;;;8.90;4.77;;;;;;;22.10;57.69;100095.56;4201765;28;20043;-66
2023/06/30 00:13:29;;;;;;;6.75;4.63;;;;;;;22.10;57.66;100082.34;4201148;28;20032;-66
2023/06/30 00:15:34;;;;;;;9.38;4.10;;;;;;;22.07;57.63;100077.16;4200793;28;20524;-66
2023/06/30 00:17:37;;;;;;;9.90;4.50;;;;;;;22.07;57.52;100079.81;4197774;28;20082;-66
2023/06/30 00:19:39;;;;;;;9.65;4.22;;;;;;;22.02;57.77;100073.81;4205259;28;20064;-66
2023/06/30 00:21:43;;;;;;;6.90;4.47;;;;;;;22.02;57.82;100073.81;4204618;28;20484;-67
2023/06/30 00:23:46;;;;;;;8.80;4.60;;;;;;;22.04;57.70;100072.00;4199312;28;20055;-66
2023/06/30 00:25:49;;;;;;;7.82;4.28;;;;;;;22.03;57.57;100068.47;4204520;28;20127;-66
2023/06/30 00:27:51;;;;;;;11.15;4.75;;;;;;;22.06;57.65;100072.78;4211963;28;20039;-66
2023/06/30 00:29:54;;;;;;;6.38;4.45;;;;;;;22.04;57.80;100066.69;4191146;28;20082;-66
2023/06/30 00:31:58;;;;;;;9.07;5.00;;;;;;;22.03;58.21;100062.31;4205165;28;20404;-66
2023/06/30 00:34:03;;;;;;;9.23;4.90;;;;;;;22.03;58.28;100067.63;4186646;28;20065;-66
2023/06/30 00:36:05;;;;;;;7.95;4.97;;;;;;;22.03;58.30;100062.31;4186012;28;20079;-65
2023/06/30 00:38:09;;;;;;;7.15;4.55;;;;;;;22.03;58.49;100059.69;4209102;28;20398;-66
2023/06/30 00:40:14;;;;;;;8.02;4.15;;;;;;;22.04;58.49;100056.13;4210705;22;20060;-61
2023/06/30 00:42:17;;;;;;;9.77;4.85;;;;;;;22.04;58.75;100056.13;4159254;28;20041;-61
2023/06/30 00:44:20;;;;;;;11.07;5.00;;;;;;;22.05;58.95;100053.41;4175212;28;20044;-62
2023/06/30 00:46:23;;;;;;;7.65;4.63;;;;;;;22.04;59.19;100051.66;4156323;28;20042;-61
2023/06/30 00:48:27;;;;;;;12.18;5.20;;;;;;;22.06;59.19;100056.91;4176353;28;20124;-62
2023/06/30 00:50:30;;;;;;;9.95;5.18;;;;;;;22.04;59.50;100056.97;4158877;28;20531;-61
2023/06/30 00:52:34;;;;;;;8.52;4.65;;;;;;;22.03;59.94;100060.53;4158779;28;20047;-62
2023/06/30 00:54:37;;;;;;;7.65;4.63;;;;;;;22.04;60.01;100064.06;4157701;28;20049;-61
2023/06/30 00:56:40;;;;;;;7.45;4.72;;;;;;;22.06;60.05;100051.59;4139214;28;20049;-61
2023/06/30 00:58:43;;;;;;;8.10;4.95;;;;;;;22.07;60.24;100059.47;4159726;28;20053;-61
2023/06/30 01:00:46;;;;;;;6.85;4.60;;;;;;;22.08;60.36;100060.38;4164130;28;20088;-61
2023/06/30 01:02:55;;;;;;;8.30;4.32;;;;;;;22.10;60.60;100063.81;4159307;28;20073;-62
2023/06/30 01:05:07;;;;;;;10.18;5.00;;;;;;;22.12;60.94;100061.94;4175248;28;20077;-61
2023/06/30 01:07:16;;;;;;;;;;;;;;;22.00;61.54;100063.31;4176044;28;20646;-61
2023/06/30 01:09:24;;;;;;;7.90;4.75;;;;;;;22.04;61.07;100062.25;4157575;28;19975;-61
2023/06/30 01:11:28;;;;;;;10.43;4.80;;;;;;;22.07;61.18;100063.94;4175473;28;20049;-61
2023/06/30 01:13:33;;;;;;;10.75;5.28;;;;;;;22.08;61.13;100065.66;4174159;28;20036;-61
2023/06/30 01:15:37;;;;;;;8.40;5.15;;;;;;;22.11;60.82;100062.88;4159561;28;20041;-61
2023/06/30 01:17:45;;;;;;;;;;;;;;;22.02;61.22;100057.94;4176347;28;20036;-61
2023/06/30 01:19:53;;;;;;;6.63;4.65;;;;;;;22.06;60.77;100056.91;4175973;28;19924;-61
2023/06/30 01:22:05;;;;;;;10.75;5.53;;;;;;;22.12;60.75;100046.06;4176234;28;20081;-62
2023/06/30 01:24:11;;;;;;;8.05;4.70;;;;;;;22.14;60.52;100052.16;4158380;28;20065;-62
2023/06/30 01:26:16;;;;;;;9.30;5.38;;;;;;;22.16;60.55;100052.09;4172480;28;20087;-61
2023/06/30 01:28:19;;;;;;;8.95;4.68;;;;;;;22.17;60.17;100046.75;4174333;28;20083;-61
2023/06/30 01:30:22;;;;;;;10.77;5.53;;;;;;;22.18;58.94;100044.94;4158321;28;20029;-61
2023/06/30 01:32:26;;;;;;;9.57;5.45;;;;;;;22.18;57.80;100037.00;4158962;28;20038;-62
2023/06/30 01:34:29;;;;;;;7.77;4.90;;;;;;;22.18;57.89;100039.66;4141875;28;20121;-61
2023/06/30 01:36:32;;;;;;;11.60;5.50;;;;;;;22.22;57.67;100038.63;4175425;28;20073;-62
2023/06/30 01:38:36;;;;;;;9.35;5.20;;;;;;;22.24;56.86;100045.56;4168286;28;20037;-62
2023/06/30 01:40:39;;;;;;;8.90;5.00;;;;;;;22.23;56.65;100043.84;4174628;28;20041;-62
2023/06/30 01:42:43;;;;;;;8.52;5.30;;;;;;;22.22;56.11;100049.19;4158125;28;20045;-61
2023/06/30 01:44:48;;;;;;;8.10;5.38;;;;;;;22.21;56.29;100048.34;4172358;28;20094;-61
2023/06/30 01:46:51;;;;;;;8.27;5.05;;;;;;;22.23;56.60;100050.94;4175428;28;20068;-61
2023/06/30 01:48:54;;;;;;;9.88;5.70;;;;;;;22.28;56.05;100041.00;4161013;28;20530;-62
2023/06/30 01:50:58;;;;;;;8.90;5.30;;;;;;;22.30;56.02;100031.22;4172608;28;20088;-61
2023/06/30 01:53:01;;;;;;;8.00;5.53;;;;;;;22.28;55.62;100033.94;4174709;28;20041;-61
2023/06/30 01:55:06;;;;;;;13.25;5.50;;;;;;;22.27;55.52;100032.22;4161142;28;20037;-61
2023/06/30 01:57:09;;;;;;;8.35;4.85;;;;;;;22.25;55.52;100042.00;4145089;28;20050;-61
2023/06/30 01:59:12;;;;;;;8.55;5.22;;;;;;;22.26;55.34;100035.78;4161080;28;20193;-61
2023/06/30 02:01:15;;;;;;;10.20;5.70;;;;;;;22.29;55.33;100040.09;4160401;28;20503;-61
2023/06/30 02:03:18;;;;;;;12.07;5.97;;;;;;;22.32;55.25;100034.69;4174169;28;20053;-62
2023/06/30 02:05:24;;;;;;;12.63;5.47;;;;;;;22.33;55.10;100030.25;4149826;28;20041;-61
2023/06/30 02:07:27;;;;;;;12.88;5.13;;;;;;;22.34;55.25;100031.97;4176841;28;20375;-62
2023/06/30 02:09:30;;;;;;;8.68;5.00;;;;;;;22.30;55.19;100034.72;4160131;28;20042;-61
2023/06/30 02:11:50;;;;;;;12.95;5.22;;;;;;;22.30;55.08;100040.03;4174071;28;20128;-61
2023/06/30 02:13:53;;;;;;;9.50;5.13;;;;;;;22.30;55.06;100037.38;4158304;28;20070;-62
2023/06/30 02:15:56;;;;;;;11.60;5.07;;;;;;;22.31;55.38;100035.56;4176952;28;20098;-61
2023/06/30 02:17:59;;;;;;;11.25;5.80;;;;;;;22.30;55.46;100036.53;4176827;28;20505;-62
2023/06/30 02:20:05;;;;;;;8.50;5.10;;;;;;;22.32;55.99;100034.69;4160066;28;20100;-61
2023/06/30 02:22:08;;;;;;;12.05;5.75;;;;;;;22.28;56.47;100023.34;4159644;28;20037;-61
2023/06/30 02:24:12;;;;;;;8.30;5.00;;;;;;;22.26;56.66;100025.19;4156954;28;20128;-61
2023/06/30 02:26:14;;;;;;;12.52;5.43;;;;;;;22.23;56.85;100022.66;4176630;28;20120;-61
2023/06/30 02:28:19;;;;;;;8.15;4.97;;;;;;;22.26;56.80;100024.31;4142988;28;20141;-61
2023/06/30 02:30:21;;;;;;;7.70;5.30;;;;;;;22.22;57.06;100026.22;4176580;28;20036;-61
2023/06/30 02:32:24;;;;;;;10.40;5.53;;;;;;;22.19;56.96;100023.69;4156770;28;20583;-61
2023/06/30 02:34:27;;;;;;;12.35;5.60;;;;;;;22.19;56.75;100025.50;4160614;28;20453;-61
2023/06/30 02:36:30;;;;;;;9.60;5.40;;;;;;;22.19;56.41;100026.34;4157924;28;20120;-62
2023/06/30 02:38:36;;;;;;;7.78;5.38;;;;;;;22.20;56.21;100024.59;4141760;28;20033;-61
2023/06/30 02:40:39;;;;;;;11.07;5.78;;;;;;;22.19;56.04;100018.41;4137811;28;1108020;-61
2023/06/30 02:42:42;;;;;;;9.93;5.35;;;;;;;22.19;56.16;100023.69;4144385;28;20121;-61
2023/06/30 02:44:46;;;;;;;6.75;4.65;;;;;;;22.18;56.16;100021.13;4176961;28;20569;-61
2023/06/30 02:46:50;;;;;;;;;;;;;;;22.08;56.72;100020.66;4176939;28;20033;-61
2023/06/30 02:48:53;;;;;;;8.80;4.82;;;;;;;22.08;56.98;100024.16;4147116;28;20024;-61
2023/06/30 02:50:56;;;;;;;10.38;5.03;;;;;;;22.11;56.82;100020.53;4173552;28;20057;-61
2023/06/30 02:53:00;;;;;;;12.75;5.47;;;;;;;22.09;57.08;100022.34;4158549;28;20045;-61
2023/06/30 02:55:03;;;;;;;11.63;5.32;;;;;;;22.08;57.13;100025.94;4161305;28;20049;-61
2023/06/30 02:57:06;;;;;;;11.40;5.13;;;;;;;22.06;57.17;100027.78;4160290;28;20574;-62
2023/06/30 02:59:09;;;;;;;5.97;4.57;;;;;;;22.03;57.11;100030.56;4175499;28;20398;-61
2023/06/30 03:01:13;;;;;;;10.88;5.38;;;;;;;22.02;57.16;100034.13;4158700;28;20540;-61
2023/06/30 03:03:18;;;;;;;8.93;5.40;;;;;;;21.99;57.18;100036.88;4177237;28;20065;-62
2023/06/30 03:05:22;;;;;;;13.80;5.72;;;;;;;21.97;56.98;100042.25;4157297;28;20037;-61
2023/06/30 03:07:25;;;;;;;9.02;5.15;;;;;;;21.93;57.00;100038.88;4176896;28;20102;-62
2023/06/30 03:09:28;;;;;;;10.93;5.95;;;;;;;21.92;57.02;100041.59;4159272;28;20140;-62
2023/06/30 03:11:31;;;;;;;8.68;4.75;;;;;;;21.89;56.93;100044.31;4173409;28;20052;-62
2023/06/30 03:13:34;;;;;;;14.23;6.72;;;;;;;21.86;57.00;100040.03;4140635;28;20046;-61
2023/06/30 03:15:37;;;;;;;11.00;5.80;;;;;;;21.88;56.81;100037.34;4177110;28;20056;-62
2023/06/30 03:17:42;;;;;;;10.40;6.13;;;;;;;21.88;56.88;100030.25;4159784;28;20139;-62
2023/06/30 03:19:44;;;;;;;;;;;;;;;21.81;57.03;100033.19;4156673;28;20125;-62
2023/06/30 03:21:47;;;;;;;8.50;5.40;;;;;;;21.84;57.10;100033.06;4174485;28;19925;-61
2023/06/30 03:23:50;;;;;;;10.40;5.55;;;;;;;21.89;56.72;100039.91;4175735;28;20148;-61
2023/06/30 03:25:53;;;;;;;13.18;6.50;;;;;;;21.88;56.72;100024.94;4160502;28;20410;-61
2023/06/30 03:27:56;;;;;;;9.63;6.38;;;;;;;21.89;56.46;100033.75;4159935;28;20042;-61
2023/06/30 03:29:59;;;;;;;11.10;6.65;;;;;;;21.87;56.33;100033.81;4177012;28;20044;-61
2023/06/30 03:32:02;;;;;;;9.82;5.65;;;;;;;21.88;56.27;100040.81;4175846;28;20041;-61
2023/06/30 03:34:07;;;;;;;11.35;6.00;;;;;;;21.80;56.22;100053.53;4176483;28;20032;-61
2023/06/30 03:36:10;;;;;;;11.15;6.60;;;;;;;21.77;56.13;100054.50;4175479;28;20486;-61
2023/06/30 03:38:13;;;;;;;9.73;6.37;;;;;;;21.78;55.82;100060.63;4164415;28;20102;-61
2023/06/30 03:40:16;;;;;;;10.25;5.72;;;;;;;21.77;55.98;100069.47;4165927;28;20300;-61
2023/06/30 03:42:19;;;;;;;10.45;6.22;;;;;;;21.78;55.91;100079.16;4175990;28;20036;-60
2023/06/30 03:44:22;;;;;;;14.07;7.60;;;;;;;21.73;55.94;100094.38;4173689;28;20041;-61
2023/06/30 03:46:25;;;;;;;12.05;5.68;;;;;;;21.71;56.15;100098.84;4158216;28;20049;-61
2023/06/30 03:48:28;;;;;;;11.13;6.85;;;;;;;21.68;56.12;100094.50;4173710;28;20064;-61
2023/06/30 03:50:32;;;;;;;11.30;6.88;;;;;;;21.65;56.08;100096.41;4173943;28;20170;-61
2023/06/30 03:52:35;;;;;;;13.32;7.63;;;;;;;21.58;56.27;100086.09;4157856;28;20077;-63
2023/06/30 03:54:38;;;;;;;9.27;5.45;;;;;;;21.56;56.68;100098.47;4156794;28;20439;-63
2023/06/30 03:56:41;;;;;;;14.27;7.70;;;;;;;21.64;56.68;100092.03;4158143;28;20041;-63
2023/06/30 03:58:44;;;;;;;10.98;6.38;;;;;;;21.74;56.63;100085.47;4164310;28;20034;-62
2023/06/30 04:00:47;;;;;;;15.65;8.07;;;;;;;21.94;56.25;100085.56;4146816;28;20385;-61
2023/06/30 04:02:50;;;;;;;11.38;7.15;;;;;;;22.01;56.24;100066.81;4159299;28;20070;-61
2023/06/30 04:04:53;;;;;;;11.20;6.00;;;;;;;22.00;56.47;100073.03;4163182;28;20103;-62
2023/06/30 04:06:57;;;;;;;11.30;7.35;;;;;;;22.10;57.45;100066.44;4164450;28;20544;-63
2023/06/30 04:09:00;;;;;;;13.82;7.53;;;;;;;22.14;57.86;100060.13;4149805;28;20069;-63
2023/06/30 04:11:03;;;;;;;13.48;7.38;;;;;;;22.07;58.86;100062.13;4144255;28;20145;-63
2023/06/30 04:13:09;;;;;;;10.98;6.82;;;;;;;22.10;59.18;100040.81;4162794;28;20124;-64
2023/06/30 04:15:15;;;;;;;16.88;8.60;;;;;;;22.19;59.79;100044.88;4165408;28;20033;-63
2023/06/30 04:17:18;;;;;;;12.68;8.10;;;;;;;22.16;61.02;100042.38;4169958;28;20047;-64
2023/06/30 04:19:21;;;;;;;16.88;10.95;;;;;;;22.10;62.08;100039.97;4161188;28;20060;-63
2023/06/30 04:21:24;;;;;;;15.20;9.57;;;;;;;21.88;63.01;100043.47;4170187;28;20037;-63
2023/06/30 04:23:28;;;;;;;17.42;10.60;;;;;;;21.67;63.84;100039.91;4166527;28;20065;-63
2023/06/30 04:25:31;;;;;;;12.02;8.52;;;;;;;21.50;63.77;100044.94;4162603;28;20037;-63
2023/06/30 04:27:34;;;;;;;21.50;10.73;;;;;;;21.40;64.33;100041.75;4169967;28;20672;-63
2023/06/30 04:29:38;;;;;;;14.30;9.98;;;;;;;21.39;64.19;100047.97;4167520;28;20055;-63
2023/06/30 04:31:41;;;;;;;16.60;10.02;;;;;;;21.36;64.34;100053.38;4166233;28;20040;-63
2023/06/30 04:33:44;;;;;;;16.85;9.65;;;;;;;21.35;64.59;100041.94;4164855;28;20047;-63
2023/06/30 04:35:47;;;;;;;16.52;11.00;;;;;;;21.43;64.45;100041.66;4172907;28;20173;-62
2023/06/30 04:37:50;;;;;;;14.52;9.15;;;;;;;21.51;64.18;100042.25;4159086;28;20044;-63
2023/06/30 04:39:54;;;;;;;16.42;9.60;;;;;;;21.66;63.92;100046.09;4153874;28;20053;-62
2023/06/30 04:41:57;;;;;;;18.27;11.77;;;;;;;21.73;63.76;100042.28;4162561;28;20128;-63
2023/06/30 04:44:00;;;;;;;19.80;13.88;;;;;;;21.86;63.94;100041.81;4149818;28;20045;-62
2023/06/30 04:46:06;;;;;;;21.15;14.13;;;;;;;21.94;63.46;100042.38;4165963;28;20037;-63
2023/06/30 04:48:09;;;;;;;19.23;13.37;;;;;;;21.90;63.22;100039.00;4167991;28;20056;-62
2023/06/30 04:50:12;;;;;;;15.80;12.00;;;;;;;21.80;63.16;100040.28;4172435;28;20321;-62
2023/06/30 04:52:15;;;;;;;15.82;11.40;;;;;;;21.55;64.12;100049.16;4169710;28;20395;-62
2023/06/30 04:54:19;;;;;;;19.90;12.45;;;;;;;21.47;64.40;100051.19;4170145;28;20123;-62
2023/06/30 04:56:23;;;;;;;14.13;9.73;;;;;;;21.23;64.87;100053.84;4170741;28;20448;-62
2023/06/30 04:58:26;;;;;;;15.55;11.15;;;;;;;21.25;65.36;100056.41;4140844;28;20036;-62
2023/06/30 05:00:29;;;;;;;16.08;10.95;;;;;;;21.24;65.36;100050.25;4152617;28;20124;-62
2023/06/30 05:02:32;;;;;;;16.45;11.43;;;;;;;21.21;65.37;100042.44;4154122;28;20484;-62
2023/06/30 05:04:35;;;;;;;18.67;9.95;;;;;;;21.22;65.66;100040.69;4164710;28;20124;-62
2023/06/30 05:06:38;;;;;;;14.38;9.90;;;;;;;21.30;65.28;100043.03;4162530;28;20040;-62
2023/06/30 05:08:41;;;;;;;15.02;10.02;;;;;;;21.33;65.06;100037.63;4148814;28;20496;-62
2023/06/30 05:10:44;;;;;;;15.55;10.38;;;;;;;21.31;65.45;100034.19;4170305;28;20041;-62
2023/06/30 05:12:50;;;;;;;17.92;12.23;;;;;;;21.26;65.56;100048.44;4165106;28;20069;-62
2023/06/30 05:14:52;;;;;;;16.75;10.57;;;;;;;21.20;65.66;100039.84;4159202;28;20067;-62
2023/06/30 05:16:55;;;;;;;20.58;13.25;;;;;;;21.14;66.26;100054.16;4164974;28;20041;-62
2023/06/30 05:18:58;;;;;;;18.40;11.95;;;;;;;21.10;66.51;100047.28;4174813;28;20152;-62
2023/06/30 05:21:01;;;;;;;16.17;12.35;;;;;;;21.13;66.51;100049.81;4146214;28;20547;-62
2023/06/30 05:23:04;;;;;;;13.77;9.77;;;;;;;21.11;66.41;100051.63;4172862;28;20076;-62
2023/06/30 05:25:08;;;;;;;20.20;12.40;;;;;;;21.24;66.29;100050.25;4174822;28;20045;-61
2023/06/30 05:27:11;;;;;;;18.17;13.20;;;;;;;21.36;65.78;100043.69;4167732;28;20045;-63
2023/06/30 05:29:15;;;;;;;19.17;13.88;;;;;;;21.40;66.05;100041.75;4175829;28;20120;-61
2023/06/30 05:31:18;;;;;;;21.65;14.88;;;;;;;21.42;66.55;100048.72;4166937;28;20048;-61
2023/06/30 05:33:21;;;;;;;20.27;13.80;;;;;;;21.36;66.72;100045.44;4169417;28;20041;-61
2023/06/30 05:35:25;;;;;;;17.30;12.60;;;;;;;21.37;66.68;100047.16;4173705;28;20098;-61
2023/06/30 05:37:28;;;;;;;17.60;12.82;;;;;;;21.43;66.47;100047.78;4158481;28;20111;-61
2023/06/30 05:39:31;;;;;;;18.75;12.70;;;;;;;21.56;66.67;100053.50;4164561;28;20081;-61
2023/06/30 05:41:33;;;;;;;17.27;13.00;;;;;;;21.71;66.08;100054.72;4163545;28;20128;-61
2023/06/30 05:43:36;;;;;;;19.60;14.48;;;;;;;21.76;65.96;100057.19;4174915;28;20025;-61
2023/06/30 05:45:41;;;;;;;20.45;14.15;;;;;;;21.90;65.40;100054.88;4182216;28;20065;-61
2023/06/30 05:47:44;;;;;;;;;;;;;;;21.81;65.23;100062.31;4165851;28;20104;-61
2023/06/30 05:49:46;;;;;;;18.70;14.02;;;;;;;21.69;65.84;100063.66;4173245;28;19929;-61
2023/06/30 05:51:49;;;;;;;16.65;10.82;;;;;;;21.67;65.96;100065.47;4169891;28;20048;-61
2023/06/30 05:53:52;;;;;;;20.13;14.65;;;;;;;21.79;66.17;100070.31;4159372;28;20037;-61
2023/06/30 05:55:56;;;;;;;17.25;14.10;;;;;;;21.85;66.28;100067.41;4171174;28;20056;-61
2023/06/30 05:57:59;;;;;;;23.77;17.58;;;;;;;22.02;65.77;100073.81;4171211;28;20041;-62
2023/06/30 06:00:03;;;;;;;27.08;18.77;;;;;;;22.05;65.47;100071.94;4156214;28;20045;-62
2023/06/30 06:02:15;;;;;;;30.67;20.25;;;;;;;22.00;65.30;100071.25;4171151;28;20469;-62
2023/06/30 06:04:18;;;;;;;23.67;18.60;;;;;;;21.97;65.59;100074.88;4169236;28;20115;-62
2023/06/30 06:06:22;;;;;;;23.53;17.97;;;;;;;21.87;65.93;100083.22;4175511;28;20414;-62
2023/06/30 06:08:25;;;;;;;23.70;17.15;;;;;;;21.80;66.09;100082.63;4167747;28;20058;-62
2023/06/30 06:10:29;;;;;;;29.08;19.88;;;;;;;21.84;66.05;100084.22;4168917;28;20036;-62
2023/06/30 06:12:32;;;;;;;23.77;17.77;;;;;;;21.75;65.97;100092.50;4174764;28;20037;-62
2023/06/30 06:14:35;;;;;;;26.20;21.13;;;;;;;21.84;65.65;100100.09;4176275;28;20079;-60
2023/06/30 06:16:38;;;;;;;30.17;19.95;;;;;;;21.73;66.44;100105.78;4152611;28;20034;-60
2023/06/30 06:18:42;;;;;;;32.60;22.02;;;;;;;21.74;66.44;100106.66;4169207;28;20463;-60
2023/06/30 06:20:45;;;;;;;31.02;21.90;;;;;;;21.68;66.16;100102.44;4179447;28;20136;-60
2023/06/30 06:22:48;;;;;;;31.48;22.60;;;;;;;21.63;66.37;100098.28;4171448;28;20033;-61
2023/06/30 06:24:51;;;;;;;29.60;22.27;;;;;;;21.67;66.51;100105.16;4167446;28;20071;-61
2023/06/30 06:26:54;;;;;;;29.73;22.77;;;;;;;21.68;66.28;100112.19;4179935;28;20095;-61
2023/06/30 06:28:56;;;;;;;26.65;21.17;;;;;;;21.49;66.93;100118.09;4155356;28;20033;-61
2023/06/30 06:30:59;;;;;;;30.90;23.48;;;;;;;21.56;67.13;100114.34;4178818;28;20087;-61
2023/06/30 06:33:02;;;;;;;30.98;24.67;;;;;;;21.62;66.75;100113.25;4158618;28;20515;-61
2023/06/30 06:35:07;;;;;;;33.78;24.45;;;;;;;21.59;66.53;100119.53;4163193;28;20080;-61
2023/06/30 06:37:10;;;;;;;32.00;23.25;;;;;;;21.52;67.07;100123.31;4173183;28;20072;-61
2023/06/30 06:39:13;;;;;;;30.33;20.98;;;;;;;21.64;67.08;100121.16;4170300;28;20037;-61
2023/06/30 06:41:16;;;;;;;34.83;26.23;;;;;;;21.75;66.79;100118.97;4170241;28;20029;-61
2023/06/30 06:43:24;;;;;;;32.13;25.73;;;;;;;21.76;66.49;100124.19;4173743;28;20037;-61
2023/06/30 06:45:27;;;;;;;34.08;26.52;;;;;;;21.81;65.91;100134.59;4166342;28;20049;-62
2023/06/30 06:48:07;;;;;;;31.45;25.23;;;;;;;21.65;66.38;100136.97;4172516;28;20037;-61
2023/06/30 06:50:12;;;;;;;36.70;26.50;;;;;;;21.67;66.58;100136.91;4173963;28;20041;-62
2023/06/30 06:52:17;;;;;;;39.63;27.00;;;;;;;21.67;66.24;100131.59;4166885;28;20096;-61
2023/06/30 06:54:20;;;;;;;28.95;23.50;;;;;;;21.56;67.16;100142.59;4165630;28;20033;-61
2023/06/30 06:56:24;;;;;;;34.22;25.45;;;;;;;21.69;66.90;100135.09;4170007;28;20037;-61
2023/06/30 06:58:30;;;;;;;38.38;27.50;;;;;;;21.70;66.89;100142.06;4191797;22;20079;-68
2023/06/30 07:00:33;;;;;;;35.88;27.98;;;;;;;21.69;66.98;100135.09;4178365;28;20128;-67
2023/06/30 07:02:36;;;;;;;30.83;23.00;;;;;;;21.71;66.99;100136.75;4182738;28;20132;-67
2023/06/30 07:04:39;;;;;;;36.28;24.98;;;;;;;21.77;66.59;100136.53;4186108;28;20045;-68
2023/06/30 07:06:43;;;;;;;33.95;24.80;;;;;;;21.89;66.23;100137.84;4182902;28;20044;-67
2023/06/30 07:08:46;;;;;;;31.95;24.92;;;;;;;21.88;65.99;100141.41;4183638;28;20049;-68
2023/06/30 07:10:50;;;;;;;42.25;31.48;;;;;;;21.87;66.10;100142.31;4182798;28;20475;-67
2023/06/30 07:12:54;;;;;;;42.47;31.70;;;;;;;21.83;65.38;100140.72;4187494;28;20410;-68
2023/06/30 07:14:56;;;;;;;42.40;31.85;;;;;;;21.78;65.65;100137.38;4181377;28;20127;-68
2023/06/30 07:16:59;;;;;;;42.78;31.95;;;;;;;21.73;66.09;100134.06;4180317;28;20279;-68
2023/06/30 07:19:03;;;;;;;41.60;32.10;;;;;;;21.70;66.46;100137.66;4179128;28;20533;-68
2023/06/30 07:21:06;;;;;;;41.63;33.50;;;;;;;21.84;65.81;100137.13;4183691;28;20628;-67
2023/06/30 07:23:10;;;;;;;45.53;33.05;;;;;;;21.82;66.02;100125.75;4182611;28;20047;-69
2023/06/30 07:25:13;;;;;;;41.10;32.55;;;;;;;21.84;66.11;100139.78;4185686;28;20052;-68
2023/06/30 07:27:15;;;;;;;45.53;35.25;;;;;;;22.05;64.88;100139.88;4179826;28;20033;-69
2023/06/30 07:29:18;;;;;;;45.72;33.25;;;;;;;21.94;65.64;100141.16;4179534;28;20079;-69
2023/06/30 07:31:21;;;;;;;44.22;35.10;;;;;;;21.85;65.85;100144.16;4182016;28;20045;-69
2023/06/30 07:33:24;;;;;;;39.30;31.67;;;;;;;21.90;65.87;100150.16;4161252;28;20075;-69
2023/06/30 07:35:27;;;;;;;43.15;31.88;;;;;;;21.89;65.87;100145.78;4167344;28;20041;-69
2023/06/30 07:37:30;;;;;;;39.75;31.35;;;;;;;21.87;66.05;100160.84;4159160;28;20057;-69
2023/06/30 07:39:34;;;;;;;43.78;34.85;;;;;;;21.95;65.71;100155.28;4160683;28;20032;-69
2023/06/30 07:41:37;;;;;;;40.83;27.90;;;;;;;21.89;66.03;100150.19;4177670;28;20507;-69
2023/06/30 07:43:40;;;;;;;47.53;35.22;;;;;;;21.92;65.81;100153.59;4165023;28;20041;-70
2023/06/30 07:45:43;;;;;;;39.88;33.78;;;;;;;21.99;65.18;100145.41;4178167;28;20048;-70
2023/06/30 07:47:47;;;;;;;39.92;29.42;;;;;;;21.99;65.34;100148.06;4183514;28;20044;-70
2023/06/30 07:49:51;;;;;;;;;;;;;;;22.04;65.27;100141.69;4183235;28;20049;-70
2023/06/30 07:51:53;;;;;;;43.90;30.95;;;;;;;22.16;65.08;100150.94;4165023;28;19927;-70
2023/06/30 07:53:56;;;;;;;48.22;34.40;;;;;;;22.17;65.32;100146.50;4181293;28;20036;-70
2023/06/30 07:56:00;;;;;;;38.58;29.35;;;;;;;22.19;65.44;100148.16;4182639;28;20052;-70
2023/06/30 07:58:03;;;;;;;33.63;26.83;;;;;;;22.23;65.66;100149.75;4179133;28;20388;-69
2023/06/30 08:00:07;;;;;;;40.13;30.95;;;;;;;22.27;65.63;100151.38;4177592;28;20064;-70
2023/06/30 08:02:17;;;;;;;39.42;29.23;;;;;;;22.23;65.63;100154.22;4177831;28;20175;-69
2023/06/30 08:04:21;;;;;;;39.53;29.30;;;;;;;22.21;65.42;100148.97;4177903;28;20550;-70
2023/06/30 08:06:25;;;;;;;41.95;31.50;;;;;;;22.19;65.56;100149.94;4178864;28;20051;-70
2023/06/30 08:08:30;;;;;;;38.65;28.83;;;;;;;22.19;65.13;100150.81;4177718;28;20483;-69
2023/06/30 08:10:33;;;;;;;36.05;27.25;;;;;;;22.22;65.12;100155.13;4180095;28;20075;-69
2023/06/30 08:12:40;;;;;;;42.38;33.17;;;;;;;22.27;64.60;100158.47;4186665;28;20041;-70
2023/06/30 08:14:43;;;;;;;42.35;32.03;;;;;;;22.20;64.68;100157.84;4182621;28;20546;-69
2023/06/30 08:16:46;;;;;;;43.30;33.95;;;;;;;22.22;64.72;100166.56;4179730;28;20438;-69
2023/06/30 08:18:50;;;;;;;38.05;30.20;;;;;;;22.18;64.54;100164.09;4160795;28;20431;-69
2023/06/30 08:20:55;;;;;;;38.80;28.95;;;;;;;22.14;64.63;100171.31;4174237;28;20038;-69
2023/06/30 08:22:58;;;;;;;27.27;21.35;;;;;;;22.10;64.50;100172.34;4180345;28;20032;-69
2023/06/30 08:25:01;;;;;;;24.98;19.60;;;;;;;22.18;63.83;100175.56;4176944;28;20060;-69
2023/06/30 08:27:05;;;;;;;28.00;18.95;;;;;;;22.07;64.19;100180.41;4177995;28;20417;-69
2023/06/30 08:29:09;;;;;;;26.92;18.33;;;;;;;21.98;64.52;100184.28;4153902;28;20045;-69
2023/06/30 08:31:12;;;;;;;23.95;16.80;;;;;;;21.95;64.80;100182.59;4173697;28;20471;-69
2023/06/30 08:33:15;;;;;;;17.00;12.15;;;;;;;22.08;63.97;100184.78;4177790;28;20045;-69
2023/06/30 08:35:38;;;;;;;15.80;11.07;;;;;;;22.10;63.33;100188.22;4178297;28;20092;-69
2023/06/30 08:37:42;;;;;;;13.82;8.98;;;;;;;21.88;63.51;100198.75;4163998;28;20029;-69
2023/06/30 08:39:45;;;;;;;10.02;8.63;;;;;;;21.86;63.27;100198.81;4180523;28;20176;-69
2023/06/30 08:41:50;;;;;;;12.50;8.80;;;;;;;21.85;63.17;100193.59;4177326;28;20120;-69
2023/06/30 08:43:54;;;;;;;11.38;9.27;;;;;;;21.97;63.09;100190.47;4174223;28;20487;-70
2023/06/30 08:46:01;;;;;;;13.52;9.05;;;;;;;22.09;62.58;100189.16;4157023;28;20092;-70
2023/06/30 08:48:05;;;;;;;13.90;9.93;;;;;;;22.37;60.60;100201.34;4177412;28;20410;-69
2023/06/30 08:50:09;;;;;;;10.23;7.90;;;;;;;22.29;60.57;100207.78;4180167;28;20414;-70
2023/06/30 08:52:12;;;;;;;13.10;9.02;;;;;;;22.32;60.33;100209.47;4180500;28;20052;-69
2023/06/30 08:54:15;;;;;;;14.80;9.18;;;;;;;22.17;60.51;100213.56;4178204;28;20483;-70
2023/06/30 08:56:18;;;;;;;12.25;8.25;;;;;;;22.05;60.96;100214.00;4180972;28;20041;-70
2023/06/30 08:58:21;;;;;;;12.65;8.27;;;;;;;21.97;61.17;100212.50;4182511;28;20045;-69
2023/06/30 09:00:28;;;;;;;12.98;9.25;;;;;;;22.03;60.40;100211.41;4165429;28;20063;-70
2023/06/30 09:02:33;;;;;;;10.85;7.45;;;;;;;22.03;60.30;100203.47;4170943;28;20052;-70
2023/06/30 09:04:37;;;;;;;12.82;8.30;;;;;;;22.19;59.06;100201.09;4181831;28;20503;-70
2023/06/30 09:06:49;;;;;;;11.95;7.97;;;;;;;22.04;59.03;100201.72;4182748;28;20112;-70
2023/06/30 09:08:59;;;;;;;8.93;6.40;;;;;;;21.81;60.44;100203.41;4185488;28;20123;-70
2023/06/30 09:11:07;;;;;;;13.57;8.20;;;;;;;21.85;60.85;100204.19;4187467;28;20485;-70
2023/06/30 09:13:11;;;;;;;11.18;8.50;;;;;;;21.92;60.93;100201.25;4174543;28;20047;-70
2023/06/30 09:15:17;;;;;;;10.07;6.60;;;;;;;22.03;59.83;100202.63;4176922;28;20037;-71
2023/06/30 09:17:20;;;;;;;10.27;7.25;;;;;;;21.90;60.22;100208.38;4180067;28;20068;-69
2023/06/30 09:19:25;;;;;;;10.45;7.05;;;;;;;21.95;59.65;100202.91;4183409;28;20127;-70
2023/06/30 09:21:28;;;;;;;8.60;6.53;;;;;;;21.86;59.93;100212.06;4181011;28;20064;-70
2023/06/30 09:23:33;;;;;;;12.57;7.20;;;;;;;21.83;59.63;100211.28;4182560;28;20059;-71
2023/06/30 09:25:40;;;;;;;8.43;6.38;;;;;;;21.73;59.69;100216.94;4146411;28;20538;-70
2023/06/30 09:27:43;;;;;;;8.73;5.53;;;;;;;21.60;60.33;100220.94;4181783;28;20037;-70
2023/06/30 09:29:54;;;;;;;7.53;5.85;;;;;;;21.56;60.08;100228.09;4190768;28;20054;-71